地図

経路データ

SID SEASON NUMBER BASIN SUBBASIN NAME ISO_TIME NATURE LAT LON WMO_WIND WMO_PRES WMO_AGENCY TRACK_TYPE DIST2LAND LANDFALL IFLAG USA_AGENCY USA_ATCF_ID USA_LAT USA_LON USA_RECORD USA_STATUS USA_WIND USA_PRES USA_SSHS USA_R34_NE USA_R34_SE USA_R34_SW USA_R34_NW USA_R50_NE USA_R50_SE USA_R50_SW USA_R50_NW USA_R64_NE USA_R64_SE USA_R64_SW USA_R64_NW USA_POCI USA_ROCI USA_RMW USA_EYE TOKYO_LAT TOKYO_LON TOKYO_GRADE TOKYO_WIND TOKYO_PRES TOKYO_R50_DIR TOKYO_R50_LONG TOKYO_R50_SHORT TOKYO_R30_DIR TOKYO_R30_LONG TOKYO_R30_SHORT TOKYO_LAND CMA_LAT CMA_LON CMA_CAT CMA_WIND CMA_PRES HKO_LAT HKO_LON HKO_CAT HKO_WIND HKO_PRES NEWDELHI_LAT NEWDELHI_LON NEWDELHI_GRADE NEWDELHI_WIND NEWDELHI_PRES NEWDELHI_CI NEWDELHI_DP NEWDELHI_POCI REUNION_LAT REUNION_LON REUNION_TYPE REUNION_WIND REUNION_PRES REUNION_TNUM REUNION_CI REUNION_RMW REUNION_R34_NE REUNION_R34_SE REUNION_R34_SW REUNION_R34_NW REUNION_R50_NE REUNION_R50_SE REUNION_R50_SW REUNION_R50_NW REUNION_R64_NE REUNION_R64_SE REUNION_R64_SW REUNION_R64_NW BOM_LAT BOM_LON BOM_TYPE BOM_WIND BOM_PRES BOM_TNUM BOM_CI BOM_RMW BOM_R34_NE BOM_R34_SE BOM_R34_SW BOM_R34_NW BOM_R50_NE BOM_R50_SE BOM_R50_SW BOM_R50_NW BOM_R64_NE BOM_R64_SE BOM_R64_SW BOM_R64_NW BOM_ROCI BOM_POCI BOM_EYE BOM_POS_METHOD BOM_PRES_METHOD NADI_LAT NADI_LON NADI_CAT NADI_WIND NADI_PRES WELLINGTON_LAT WELLINGTON_LON WELLINGTON_WIND WELLINGTON_PRES DS824_LAT DS824_LON DS824_STAGE DS824_WIND DS824_PRES TD9636_LAT TD9636_LON TD9636_STAGE TD9636_WIND TD9636_PRES TD9635_LAT TD9635_LON TD9635_WIND TD9635_PRES TD9635_ROCI NEUMANN_LAT NEUMANN_LON NEUMANN_CLASS NEUMANN_WIND NEUMANN_PRES MLC_LAT MLC_LON MLC_CLASS MLC_WIND MLC_PRES USA_GUST BOM_GUST BOM_GUST_PER REUNION_GUST REUNION_GUST_PER USA_SEAHGT USA_SEARAD_NE USA_SEARAD_SE USA_SEARAD_SW USA_SEARAD_NW STORM_SPEED STORM_DIR
1928043S14061 1928 3 SI MM NOT_NAMED 1928-02-12 00:00:00 TS -13.6000 60.6000 main 790 732 _________O____ -1 -13.6000 60.6000 TC 25 16 242
1928043S14061 1928 3 SI MM NOT_NAMED 1928-02-12 03:00:00 TS -13.9705 59.8828 main 721 657 _________P____ -1 -13.9705 59.8828 TC 25 16 240
1928043S14061 1928 3 SI MM NOT_NAMED 1928-02-12 06:00:00 TS -14.4000 59.2000 main 657 589 _________O____ -1 -14.4000 59.2000 TC 25 16 233
1928043S14061 1928 3 SI MM NOT_NAMED 1928-02-12 09:00:00 TS -14.9273 58.5774 main 589 515 _________P____ -1 -14.9273 58.5774 TC 25 16 227
1928043S14061 1928 3 SI MM NOT_NAMED 1928-02-12 12:00:00 TS -15.5000 58.0000 main 515 458 _________O____ -1 -15.5000 58.0000 TC 25 16 226
1928043S14061 1928 3 SI MM NOT_NAMED 1928-02-12 15:00:00 TS -16.0350 57.4049 main 458 396 _________P____ -1 -16.0350 57.4049 TC 25 15 224
1928043S14061 1928 3 SI MM NOT_NAMED 1928-02-12 18:00:00 TS -16.6000 56.9000 main 396 330 _________O____ -1 -16.6000 56.9000 TC 25 15 214
1928043S14061 1928 3 SI MM NOT_NAMED 1928-02-12 21:00:00 TS -17.3099 56.5102 main 330 276 _________P____ -1 -17.3099 56.5102 TC 25 14 204
1928043S14061 1928 3 SI MM NOT_NAMED 1928-02-13 00:00:00 TS -17.9000 56.3000 main 276 256 _________O____ -1 -17.9000 56.3000 TC 25 8 194
1928043S14061 1928 3 SI MM NOT_NAMED 1928-02-13 03:00:00 TS -18.1249 56.2971 main 256 241 _________P____ -1 -18.1249 56.2971 TC 25 3 163
1928043S14061 1928 3 SI MM NOT_NAMED 1928-02-13 06:00:00 TS -18.2000 56.4000 reunion main 241 232 _________O____ -1 -18.2000 56.4000 TC 25 3 149
1928043S14061 1928 3 SI MM NOT_NAMED 1928-02-13 09:00:00 TS -18.3500 56.4425 main 232 207 _________P____ -1 -18.3500 56.4425 TC 25 3 163
1928043S14061 1928 3 SI MM NOT_NAMED 1928-02-13 12:00:00 TS -18.5000 56.5000 main 207 192 _________O____ -1 -18.5000 56.5000 TC 25 3 156
1928043S14061 1928 3 SI MM NOT_NAMED 1928-02-13 15:00:00 TS -18.6575 56.5850 main 182 167 _________P____ -1 -18.6575 56.5850 TC 25 4 148
1928043S14061 1928 3 SI MM NOT_NAMED 1928-02-13 18:00:00 TS -18.8000 56.7000 main 167 148 _________O____ -1 -18.8000 56.7000 TC 25 3 126
1928043S14061 1928 3 SI MM NOT_NAMED 1928-02-13 21:00:00 TS -18.8625 56.8799 main 148 133 _________P____ -1 -18.8625 56.8799 TC 25 3 125
1928043S14061 1928 3 SI MM NOT_NAMED 1928-02-14 00:00:00 TS -19.0000 57.0000 main 133 103 _________O____ -1 -19.0000 57.0000 TC 25 5 169
1928043S14061 1928 3 SI MM NOT_NAMED 1928-02-14 03:00:00 TS -19.3623 56.9823 main 94 77 _________P____ -1 -19.3623 56.9823 TC 25 8 193
1928043S14061 1928 3 SI MM NOT_NAMED 1928-02-14 06:00:00 TS -19.8000 56.8000 reunion main 80 76 _________O____ -1 -19.8000 56.8000 TC 25 9 210
1928043S14061 1928 3 SI MM NOT_NAMED 1928-02-14 09:00:00 TS -20.1648 56.4824 main 89 64 _________P____ -1 -20.1648 56.4824 TC 25 10 227
1928043S14061 1928 3 SI MM NOT_NAMED 1928-02-14 12:00:00 TS -20.5000 56.0000 main 64 22 _________O____ -1 -20.5000 56.0000 TC 25 12 236
1928043S14061 1928 3 SI MM NOT_NAMED 1928-02-14 15:00:00 TS -20.8449 55.4028 main 22 11 _________P____ -1 -20.8449 55.4028 TC 25 14 244
1928043S14061 1928 3 SI MM NOT_NAMED 1928-02-14 18:00:00 TS -21.1000 54.7000 main 51 51 _________O____ -1 -21.1000 54.7000 TC 25 14 255
1928043S14061 1928 3 SI MM NOT_NAMED 1928-02-14 21:00:00 TS -21.2097 53.9723 main 124 124 _________P____ -1 -21.2097 53.9723 TC 25 14 266
1928043S14061 1928 3 SI MM NOT_NAMED 1928-02-15 00:00:00 TS -21.2000 53.2000 main 207 207 _________O____ -1 -21.2000 53.2000 TC 25 15 273
1928043S14061 1928 3 SI MM NOT_NAMED 1928-02-15 03:00:00 TS -21.1222 52.4072 main 290 290 _________P____ -1 -21.1222 52.4072 TC 25 15 278
1928043S14061 1928 3 SI MM NOT_NAMED 1928-02-15 06:00:00 TS -21.0000 51.6000 reunion main 312 240 _________O____ -1 -21.0000 51.6000 TC 25 15 278
1928043S14061 1928 3 SI MM NOT_NAMED 1928-02-15 09:00:00 TS -20.8996 50.8001 main 231 10 _________P____ -1 -20.8996 50.8001 TC 25 28 294
1928043S14061 1928 3 SI MM NOT_NAMED 1928-02-15 12:00:00 TS -19.8400 48.8400 main 0 0 _________OO___ -1 -20.8000 50.0000 TC 25 -16.0000 44.2000 7 35 299
1928043S14061 1928 3 SI MM NOT_NAMED 1928-02-15 15:00:00 TS -19.1658 47.5262 main 0 0 _________PP___ -1 -20.6846 49.1999 TC 25 -16.3000 44.2249 7 24 297
1928043S14061 1928 3 SI MM NOT_NAMED 1928-02-15 18:00:00 TS -18.7679 46.5898 main 0 0 _________OP___ -1 -20.6000 48.4000 TC 25 -16.6000 44.2498 7 17 290
1928043S14061 1928 3 SI MM NOT_NAMED 1928-02-15 21:00:00 TS -18.6110 45.8789 main 0 0 _________PP___ -1 -20.5627 47.5475 TC 25 -16.9000 44.2749 7 10 262
1928043S14061 1928 3 SI MM NOT_NAMED 1928-02-16 00:00:00 TS -18.9000 45.5500 main 0 0 _________OO___ -1 -20.6000 46.8000 TC 25 -17.2000 44.3000 7 9 215
1928043S14061 1928 3 SI MM NOT_NAMED 1928-02-16 03:00:00 TS -19.3752 45.3177 main 0 0 _________PP___ -1 -20.7044 46.2974 TC 25 -18.1502 44.5212 7 11 196
1928043S14061 1928 3 SI MM NOT_NAMED 1928-02-16 06:00:00 TS -19.9802 45.2295 reunion main 0 0 _________OP___ -1 -20.2000 45.0000 99 9.90000 -20.9000 45.9000 TC 25 -19.1007 44.7449 7 14 184
1928043S14061 1928 3 SI MM NOT_NAMED 1928-02-16 09:00:00 TS -20.7250 45.2160 main 0 0 _________PP___ -1 -21.1774 45.4426 TC 25 -20.0508 44.9711 7 14 183
1928043S14061 1928 3 SI MM NOT_NAMED 1928-02-16 12:00:00 TS -21.3861 45.1579 main 0 0 _________OO___ -1 -21.5000 45.0000 TC 25 -21.0000 45.2000 7 12 193
1928043S14061 1928 3 SI MM NOT_NAMED 1928-02-16 15:00:00 TS -21.8927 44.9198 main 0 0 _________P____ -1 -21.7998 44.5923 TC 25 7 11 231
1928043S14061 1928 3 SI MM NOT_NAMED 1928-02-16 18:00:00 TS -22.1000 44.2000 main 0 0 _________O____ -1 -22.1000 44.2000 TC 25 7 11 245
1928043S14061 1928 3 SI MM NOT_NAMED 1928-02-16 21:00:00 TS -22.3622 43.8217 main 0 0 _________P____ -1 -22.3622 43.8217 TC 25 7 10 231
1928043S14061 1928 3 SI MM NOT_NAMED 1928-02-17 00:00:00 TS -22.7000 43.4000 main 0 0 _________O____ -1 -22.7000 43.4000 TC 25 12 227
1928043S14061 1928 3 SI MM NOT_NAMED 1928-02-17 03:00:00 TS -23.2052 42.8578 main 67 67 _________P____ -1 -23.2052 42.8578 TC 25 15 223
1928043S14061 1928 3 SI MM NOT_NAMED 1928-02-17 06:00:00 TS -23.8000 42.3000 reunion main 132 132 _________O____ -1 -23.8000 42.3000 TC 25 15 219
1928043S14061 1928 3 SI MM NOT_NAMED 1928-02-17 09:00:00 TS -24.3697 41.8342 main 195 195 _________P____ -1 -24.3697 41.8342 TC 25 15 214
1928043S14061 1928 3 SI MM NOT_NAMED 1928-02-17 12:00:00 TS -25.0000 41.4000 main 246 246 _________O____ -1 -25.0000 41.4000 TC 25 16 211
1928043S14061 1928 3 SI MM NOT_NAMED 1928-02-17 15:00:00 TS -25.7200 40.9349 main 316 316 _________P____ -1 -25.7200 40.9349 TC 25 17 208
1928043S14061 1928 3 SI MM NOT_NAMED 1928-02-17 18:00:00 TS -26.5000 40.5000 main 388 388 _________O____ -1 -26.5000 40.5000 TC 25 17 205
1928043S14061 1928 3 SI MM NOT_NAMED 1928-02-17 21:00:00 TS -27.2975 40.1307 main 466 466 _________P____ -1 -27.2975 40.1307 TC 25 17 201
1928043S14061 1928 3 SI MM NOT_NAMED 1928-02-18 00:00:00 TS -28.1000 39.8000 main 542 _________O____ -1 -28.1000 39.8000 TC 25 17 200

IBTrACS Databaseについて

本データベースは、米国NOAAが公開する1842年以降の世界の熱帯低気圧のベストトラックデータアーカイブInternational Best Track Archive for Climate Stewardship (IBTrACS)を、ウェブで閲覧しやすい形式に変換したものです。

最終更新日:2021-10-21